Time;durP1;ratioP1;P1;durP2;ratioP2;P2;SDS_P1;SDS_P2;PMS_P1;PMS_P2;Temp;Humidity;BMP_temperature;BMP_pressure;BME280_temperature;BME280_humidity;BME280_pressure;Samples;Min_cycle;Max_cycle;Signal;HPM_P1;HPM_P2
2024/01/24 00:00:47;;;;;;;10.18;4.28;;;8.80;99.90;;;;;;5051804;28;20494;-74
2024/01/24 00:03:13;;;;;;;7.30;4.65;;;8.90;99.90;;;;;;5051289;28;20062;-73
2024/01/24 00:05:38;;;;;;;7.05;4.45;;;8.80;99.90;;;;;;5050260;28;20025;-74
2024/01/24 00:08:04;;;;;;;6.70;5.05;;;8.90;99.90;;;;;;5051650;28;20560;-74
2024/01/24 00:10:30;;;;;;;8.10;5.10;;;9.00;99.90;;;;;;5051479;28;20108;-75
2024/01/24 00:12:56;;;;;;;7.25;5.00;;;9.10;99.90;;;;;;5051231;28;20095;-73
2024/01/24 00:15:21;;;;;;;8.73;5.32;;;9.10;99.90;;;;;;5051167;28;20028;-73
2024/01/24 00:17:49;;;;;;;7.75;5.95;;;9.10;99.90;;;;;;5050568;28;20121;-74
2024/01/24 00:20:15;;;;;;;6.88;5.28;;;;;;;;;;5052090;28;20025;-73
2024/01/24 00:22:41;;;;;;;7.55;5.75;;;;;;;;;;5051946;28;20074;-74
2024/01/24 00:25:07;;;;;;;10.88;6.20;;;;;;;;;;5052069;28;20025;-73
2024/01/24 00:27:33;;;;;;;9.02;6.13;;;;;;;;;;5050518;28;20067;-75
2024/01/24 00:29:59;;;;;;;8.15;6.40;;;;;;;;;;5051272;28;20431;-73
2024/01/24 00:32:25;;;;;;;8.68;6.65;;;;;;;;;;5051140;28;20060;-73
2024/01/24 00:34:51;;;;;;;9.68;7.35;;;;;;;;;;5051156;28;20075;-74
2024/01/24 00:37:17;;;;;;;9.70;7.43;;;;;;;;;;5050268;28;20064;-73
2024/01/24 00:39:45;;;;;;;9.88;7.50;;;;;;;;;;5051143;28;20029;-72
2024/01/24 00:42:11;;;;;;;10.05;7.40;;;;;;;;;;5050112;28;20518;-73
2024/01/24 00:44:39;;;;;;;11.70;9.02;;;;;;;;;;5052010;28;20029;-74
2024/01/24 00:47:06;;;;;;;10.57;8.23;;;;;;;;;;5051849;28;20025;-73
2024/01/24 00:49:32;;;;;;;11.05;8.65;;;;;;;;;;5051893;28;20040;-75
2024/01/24 00:51:58;;;;;;;12.38;8.80;;;;;;;;;;5051812;28;20025;-74
2024/01/24 00:54:24;;;;;;;11.57;9.27;;;;;;;;;;5051694;28;20468;-74
2024/01/24 00:56:50;;;;;;;11.82;9.18;;;;;;;;;;5051469;28;20483;-74
2024/01/24 00:59:16;;;;;;;10.25;8.68;;;;;;;;;;5051615;28;20040;-74
2024/01/24 01:01:42;;;;;;;11.10;8.93;;;;;;;;;;5048606;28;20021;-75
2024/01/24 01:04:08;;;;;;;11.82;9.40;;;;;;;;;;5051529;28;20379;-74
2024/01/24 01:06:35;;;;;;;12.55;9.60;;;;;;;;;;5051294;28;20021;-73
2024/01/24 01:09:01;;;;;;;10.02;9.00;;;;;;;;;;5051018;28;20037;-73
2024/01/24 01:11:27;;;;;;;12.23;8.85;;;;;;;;;;5051604;28;20108;-75
2024/01/24 01:13:53;;;;;;;10.55;9.45;;;;;;;;;;5051847;28;20029;-74
2024/01/24 01:16:19;;;;;;;13.07;9.00;;;;;;;;;;5051482;28;20075;-78
2024/01/24 01:18:45;;;;;;;10.55;8.57;;;;;;;;;;5051542;28;20031;-76
2024/01/24 01:21:11;;;;;;;12.73;8.95;;;;;;;;;;5051686;28;20067;-76
2024/01/24 01:23:37;;;;;;;13.80;9.40;;;;;;;;;;5051552;28;20083;-75
2024/01/24 01:26:03;;;;;;;13.60;9.68;;;;;;;;;;5051365;28;20376;-76
2024/01/24 01:28:29;;;;;;;10.85;8.98;;;;;;;;;;5051618;28;20033;-75
2024/01/24 01:30:55;;;;;;;10.63;8.40;;;;;;;;;;5051523;28;20025;-75
2024/01/24 01:33:21;;;;;;;10.50;9.40;;;;;;;;;;5051341;28;20032;-76
2024/01/24 01:35:47;;;;;;;11.38;9.10;;;;;;;;;;5051169;28;20380;-75
2024/01/24 01:38:16;;;;;;;12.27;8.32;;;;;;;;;;5050965;28;20144;-74
2024/01/24 01:40:42;;;;;;;9.80;8.20;;;;;;;;;;5051310;28;20472;-75
2024/01/24 01:43:14;;;;;;;12.10;7.93;;;;;;;;;;5051254;28;20028;-75
2024/01/24 01:45:41;;;;;;;11.27;7.82;;;;;;;;;;5051051;28;20021;-75
2024/01/24 01:48:08;;;;;;;9.68;6.80;;;;;;;;;;5051129;28;20454;-74
2024/01/24 01:50:34;;;;;;;7.00;5.70;;;;;;;;;;5051238;28;20112;-73
2024/01/24 01:53:01;;;;;;;8.35;6.75;;;;;;;;;;5051104;28;20044;-73
2024/01/24 01:55:27;;;;;;;7.88;6.75;;;;;;;;;;5051309;28;20032;-75
2024/01/24 01:57:54;;;;;;;7.93;6.85;;;;;;;;;;5050738;28;20029;-73
2024/01/24 02:00:21;;;;;;;8.95;7.60;;;;;;;;;;5051127;28;20251;-73
2024/01/24 02:02:48;;;;;;;8.50;7.18;;;;;;;;;;5051069;28;20025;-73
2024/01/24 02:05:18;;;;;;;9.80;7.60;;;;;;;;;;5050811;28;20021;-72
2024/01/24 02:07:44;;;;;;;8.48;7.35;;;;;;;;;;5050576;28;20373;-73
2024/01/24 02:10:11;;;;;;;8.98;7.78;;;;;;;;;;5050270;28;20029;-73
2024/01/24 02:12:37;;;;;;;10.00;7.60;;;;;;;;;;5050960;28;20095;-74
2024/01/24 02:15:03;;;;;;;9.85;8.07;;;;;;;;;;5050941;28;20029;-73
2024/01/24 02:17:29;;;;;;;10.25;7.90;;;;;;;;;;5050687;28;20025;-76
2024/01/24 02:19:55;;;;;;;10.45;8.63;;;;;;;;;;5051013;28;20047;-75
2024/01/24 02:22:22;;;;;;;11.18;8.10;;;;;;;;;;5050917;28;20025;-74
2024/01/24 02:24:48;;;;;;;9.65;7.78;;;;;;;;;;5050833;28;20032;-75
2024/01/24 02:27:14;;;;;;;10.45;7.57;;;;;;;;;;5050548;28;20029;-74
2024/01/24 02:29:40;;;;;;;8.48;6.72;;;;;;;;;;5052372;28;20045;-73
2024/01/24 02:32:06;;;;;;;12.35;6.70;;;;;;;;;;5054494;28;20511;-74
2024/01/24 02:34:32;;;;;;;10.20;5.97;;;;;;;;;;5054445;28;20029;-74
2024/01/24 02:36:58;;;;;;;7.47;5.97;;;;;;;;;;5052966;28;20497;-74
2024/01/24 02:39:23;;;;;;;8.63;5.57;;;;;;;;;;5054323;28;20117;-74
2024/01/24 02:41:50;;;;;;;7.80;5.35;;;;;;;;;;5054102;28;20017;-75
2024/01/24 02:44:16;;;;;;;5.80;4.03;;;;;;;;;;5054140;28;20029;-76
2024/01/24 02:46:42;;;;;;;5.03;3.50;;;;;;;;;;5054450;28;20025;-76
2024/01/24 02:49:08;;;;;;;3.20;2.90;;;;;;;;;;5054529;28;20029;-77
2024/01/24 02:51:33;;;;;;;4.38;2.60;;;;;;;;;;5054244;28;20063;-76
2024/01/24 02:53:59;;;;;;;2.65;2.00;;;;;;;;;;5054105;28;20029;-76
2024/01/24 02:56:26;;;;;;;3.97;2.17;;;;;;;;;;5053783;28;20040;-75
2024/01/24 02:58:52;;;;;;;2.83;1.95;;;;;;;;;;5054020;28;20024;-76
2024/01/24 03:01:18;;;;;;;2.78;1.52;;;;;;;;;;5053923;28;20400;-74
2024/01/24 03:03:44;;;;;;;3.85;1.50;;;;;;;;;;5053952;28;20017;-74
2024/01/24 03:06:10;;;;;;;3.15;1.20;;;;;;;;;;5053658;28;20025;-74
2024/01/24 03:08:56;;;;;;;4.28;1.48;;;;;;;;;;5054464;28;20054;-75
2024/01/24 03:11:22;;;;;;;6.72;1.55;;;;;;;;;;5053797;28;20029;-74
2024/01/24 03:13:48;;;;;;;4.78;1.55;;;;;;;;;;5053890;28;20358;-76
2024/01/24 03:16:14;;;;;;;3.78;1.30;;;;;;;;;;5053704;28;20051;-75
2024/01/24 03:18:40;;;;;;;1.85;1.05;;;;;;;;;;5053515;28;20504;-74
2024/01/24 03:21:08;;;;;;;1.23;0.80;;;;;;;;;;5053801;28;20053;-74
2024/01/24 03:23:37;;;;;;;1.65;0.82;;;;;;;;;;5053502;28;20032;-74
2024/01/24 03:26:04;;;;;;;1.25;0.80;;;11.60;99.90;;;;;;5053234;28;20079;-74
2024/01/24 03:28:30;;;;;;;4.97;1.15;;;;;;;;;;5053426;28;20035;-73
2024/01/24 03:30:56;;;;;;;4.32;1.00;;;;;;;;;;5053318;28;20060;-75
2024/01/24 03:33:22;;;;;;;2.60;0.85;;;;;;;;;;5053192;28;20025;-75
2024/01/24 03:35:48;;;;;;;3.58;0.90;;;;;;;;;;5053105;28;20059;-75
2024/01/24 03:38:14;;;;;;;6.95;1.35;;;;;;;;;;5052999;28;20072;-76
2024/01/24 03:40:40;;;;;;;11.00;1.70;;;;;;;;;;5051924;28;20032;-73
2024/01/24 03:43:06;;;;;;;17.40;2.90;;;;;;;;;;5053110;28;20044;-73
2024/01/24 03:45:32;;;;;;;18.45;2.60;;;;;;;;;;5053224;28;20070;-74
2024/01/24 03:47:59;;;;;;;13.98;2.15;;;;;;;;;;5052897;28;20100;-74
2024/01/24 03:50:25;;;;;;;10.63;1.98;;;;;;;;;;5053193;28;20024;-74
2024/01/24 03:52:51;;;;;;;6.22;1.30;;;;;;;;;;5052991;28;20032;-74
2024/01/24 03:55:17;;;;;;;9.90;1.90;;;;;;;;;;5052993;28;20445;-74
2024/01/24 03:57:43;;;;;;;16.73;3.05;;;;;;;;;;5052509;28;20033;-74
2024/01/24 04:00:11;;;;;;;16.40;2.15;;;;;;;;;;5052709;28;20053;-74
2024/01/24 04:02:37;;;;;;;16.52;2.47;;;;;;;;;;5054208;28;20071;-74
2024/01/24 04:05:04;;;;;;;15.18;2.15;;;;;;;;;;5057964;28;20384;-74
2024/01/24 04:07:30;;;;;;;21.73;2.88;;;;;;;;;;5058097;28;20021;-73
2024/01/24 04:09:55;;;;;;;19.80;2.55;;;;;;;;;;5059089;28;20048;-73
2024/01/24 04:12:21;;;;;;;16.48;2.63;;;;;;;;;;5058501;28;20530;-73
2024/01/24 04:14:47;;;;;;;19.38;2.90;;;;;;;;;;5055298;28;20025;-73
2024/01/24 04:17:13;;;;;;;15.52;2.92;;;;;;;;;;5051894;28;20028;-73
2024/01/24 04:19:39;;;;;;;21.33;2.92;;;;;;;;;;5052255;28;20041;-74
2024/01/24 04:22:05;;;;;;;18.15;2.95;;;;;;;;;;5052165;28;20021;-73
2024/01/24 04:24:31;;;;;;;19.30;3.05;;;;;;;;;;5054916;28;20133;-74
2024/01/24 04:26:57;;;;;;;13.77;2.90;;;;;;;;;;5082821;28;20512;-74
2024/01/24 04:29:23;;;;;;;15.73;2.35;;;;;;;;;;5082941;28;20029;-74
2024/01/24 04:31:49;;;;;;;15.00;2.58;;;;;;;;;;5082879;28;20023;-74
2024/01/24 04:34:17;;;;;;;11.45;2.00;;;;;;;;;;5063413;28;20071;-75
2024/01/24 04:36:44;;;;;;;17.25;2.50;;;;;;;;;;5058466;28;20032;-74
2024/01/24 04:39:10;;;;;;;18.25;2.67;;;;;;;;;;5059740;28;20021;-75
2024/01/24 04:41:36;;;;;;;17.25;2.63;;;;;;;;;;5059462;28;20349;-74
2024/01/24 04:44:02;;;;;;;23.67;7.18;;;;;;;;;;5054049;28;20034;-74
2024/01/24 04:46:28;;;;;;;22.45;3.17;;;;;;;;;;5052260;28;20021;-74
2024/01/24 04:48:54;;;;;;;20.25;3.20;;;;;;;;;;5052820;28;20030;-74
2024/01/24 04:51:21;;;;;;;19.80;3.13;;;;;;;;;;5052352;28;20108;-74
2024/01/24 04:53:47;;;;;;;28.30;3.58;;;;;;;;;;5051818;28;20044;-73
2024/01/24 04:56:14;;;;;;;26.17;4.82;;;;;;;;;;5051512;28;20040;-73
2024/01/24 04:58:43;;;;;;;30.40;4.38;;;;;;;;;;5052279;28;20024;-73
2024/01/24 05:01:11;;;;;;;32.92;4.50;;;;;;;;;;5052771;28;20104;-73
2024/01/24 05:03:37;;;;;;;27.67;4.07;;;;;;;;;;5051219;28;20017;-74
2024/01/24 05:06:04;;;;;;;42.63;6.00;;;;;;;;;;5051292;28;20033;-73
2024/01/24 05:08:30;;;;;;;37.92;4.57;;;;;;;;;;5051676;28;20499;-73
2024/01/24 05:10:56;;;;;;;39.33;4.63;;;;;;;;;;5069587;28;20032;-71
2024/01/24 05:13:22;;;;;;;38.70;5.03;;;;;;;;;;5073418;28;20039;-72
2024/01/24 05:15:49;;;;;;;33.33;5.00;;;;;;;;;;5071848;28;20024;-73
2024/01/24 05:18:15;;;;;;;41.15;5.75;;;;;;;;;;5071741;28;20021;-72
2024/01/24 05:20:41;;;;;;;34.80;5.65;;;;;;;;;;5057324;28;20039;-73
2024/01/24 05:23:07;;;;;;;40.60;5.47;;;;;;;;;;5051669;28;20021;-73
2024/01/24 05:25:34;;;;;;;48.38;6.32;;;;;;;;;;5051654;28;20025;-72
2024/01/24 05:28:00;;;;;;;44.92;6.28;;;;;;;;;;5051442;28;20384;-74
2024/01/24 05:30:26;;;;;;;47.70;5.55;;;;;;;;;;5051229;28;20040;-73
2024/01/24 05:32:56;;;;;;;39.88;5.65;;;;;;;;;;5050865;28;20040;-73
2024/01/24 05:35:22;;;;;;;44.47;7.05;;;;;;;;;;5051241;28;20077;-79
2024/01/24 05:37:48;;;;;;;45.70;6.75;;;;;;;;;;5050097;28;20029;-77
2024/01/24 05:40:14;;;;;;;48.20;6.20;;;;;;;;;;5051322;28;20036;-74
2024/01/24 05:42:40;;;;;;;40.00;6.35;;;;;;;;;;5051316;28;20131;-73
2024/01/24 05:45:06;;;;;;;52.10;7.22;;;;;;;;;;5051630;28;20052;-73
2024/01/24 05:47:32;;;;;;;50.13;6.97;;;;;;;;;;5051265;28;20395;-71
2024/01/24 05:49:59;;;;;;;44.85;7.15;;;;;;;;;;5051408;28;20087;-72
2024/01/24 05:52:25;;;;;;;47.58;6.85;;;;;;;;;;5051218;28;20029;-73
2024/01/24 05:54:51;;;;;;;53.22;6.75;;;;;;;;;;5050212;28;20105;-72
2024/01/24 05:57:17;;;;;;;39.28;6.25;;;;;;;;;;5050973;28;20117;-74
2024/01/24 05:59:43;;;;;;;45.30;7.32;;;;;;;;;;5051912;28;20116;-73
2024/01/24 06:02:09;;;;;;;46.65;6.60;;;;;;;;;;5051404;28;20025;-74
2024/01/24 06:04:35;;;;;;;46.20;7.30;;;;;;;;;;5052948;28;20471;-73
2024/01/24 06:07:01;;;;;;;40.00;6.63;;;;;;;;;;5054793;28;20025;-72
2024/01/24 06:09:28;;;;;;;49.03;7.43;;;;;;;;;;5054984;28;20488;-73
2024/01/24 06:11:54;;;;;;;42.97;6.45;;;;;;;;;;5054717;28;20033;-72
2024/01/24 06:14:20;;;;;;;52.38;6.90;;;;;;;;;;5054803;28;20025;-72
2024/01/24 06:16:46;;;;;;;50.75;7.05;;;;;;;;;;5053101;28;20021;-74
2024/01/24 06:19:12;;;;;;;58.40;7.18;;;;;;;;;;5054571;28;20492;-74
2024/01/24 06:21:38;;;;;;;52.25;7.35;;;;;;;;;;5055327;28;20024;-74
2024/01/24 06:24:07;;;;;;;47.65;6.72;;;;;;;;;;5055676;28;20021;-75
2024/01/24 06:26:33;;;;;;;55.88;7.22;;;;;;;;;;5054595;28;20079;-75
2024/01/24 06:29:00;;;;;;;51.97;8.20;;;;;;;;;;5050103;28;20057;-76
2024/01/24 06:31:26;;;;;;;47.80;6.30;;;;;;;;;;5054878;28;20082;-74
2024/01/24 06:33:53;;;;;;;47.60;6.95;;;;;;;;;;5054277;28;20103;-76
2024/01/24 06:36:20;;;;;;;43.33;6.70;;;;;;;;;;5058357;28;20468;-75
2024/01/24 06:38:46;;;;;;;41.55;6.85;;;;;;;;;;5049325;28;20112;-74
2024/01/24 06:41:13;;;;;;;57.38;7.05;;;;;;;;;;5053030;28;20098;-75
2024/01/24 06:43:42;;;;;;;41.95;6.57;;;;;;;;;;5057877;28;20021;-76
2024/01/24 06:46:08;;;;;;;45.83;7.00;;;12.10;88.40;;;;;;5052646;28;20036;-76
2024/01/24 06:48:34;;;;;;;44.35;7.15;;;12.00;88.30;;;;;;5049875;28;20027;-75
2024/01/24 06:51:00;;;;;;;51.90;7.15;;;12.00;90.00;;;;;;5054929;28;20176;-74
2024/01/24 06:53:26;;;;;;;50.10;7.15;;;12.00;89.30;;;;;;5053847;28;20507;-76
2024/01/24 06:55:52;;;;;;;45.95;7.13;;;12.00;89.40;;;;;;5047396;28;20021;-75
2024/01/24 06:58:17;;;;;;;48.35;7.00;;;12.00;86.70;;;;;;5053785;28;20033;-73
2024/01/24 07:00:43;;;;;;;55.88;8.15;;;;;;;;;;5053281;28;20025;-75
2024/01/24 07:03:09;;;;;;;49.35;6.63;;;12.00;84.20;;;;;;5052730;28;20037;-76
2024/01/24 07:05:35;;;;;;;46.50;7.80;;;12.00;85.70;;;;;;5051347;28;20052;-77
2024/01/24 07:08:01;;;;;;;49.60;7.38;;;12.00;90.10;;;;;;5060049;28;20059;-76
2024/01/24 07:10:26;;;;;;;46.75;7.43;;;11.90;87.90;;;;;;5058596;28;20456;-77
2024/01/24 07:12:52;;;;;;;50.15;7.53;;;12.00;89.30;;;;;;5057998;28;20099;-75
2024/01/24 07:15:18;;;;;;;51.55;7.40;;;12.00;90.30;;;;;;5058716;28;20439;-76
2024/01/24 07:17:44;;;;;;;47.67;6.60;;;11.90;91.40;;;;;;5056782;28;20035;-79
2024/01/24 07:20:11;;;;;;;54.80;8.38;;;11.90;91.70;;;;;;5064352;28;20036;-75
2024/01/24 07:22:38;;;;;;;54.58;7.65;;;;;;;;;;5058766;28;20020;-75
2024/01/24 07:25:07;;;;;;;60.15;7.93;;;;;;;;;;5054477;28;20048;-74
2024/01/24 07:27:33;;;;;;;69.00;9.55;;;;;;;;;;5053901;28;20016;-74
2024/01/24 07:30:00;;;;;;;62.55;9.00;;;;;;;;;;5053371;28;20522;-74
2024/01/24 07:32:27;;;;;;;58.30;7.82;;;11.60;99.90;;;;;;5053318;28;20029;-74
2024/01/24 07:34:53;;;;;;;61.05;9.00;;;11.60;99.90;;;;;;5052112;28;20051;-73
2024/01/24 07:37:18;;;;;;;59.70;9.35;;;11.50;99.90;;;;;;5052078;28;20052;-76
2024/01/24 07:39:44;;;;;;;56.20;8.15;;;11.50;99.90;;;;;;5052656;28;20029;-75
2024/01/24 07:42:10;;;;;;;62.75;9.18;;;;;;;;;;5053115;28;20458;-75
2024/01/24 07:44:36;;;;;;;58.70;9.60;;;11.50;99.90;;;;;;5053475;28;20083;-75
2024/01/24 07:47:03;;;;;;;57.58;8.75;;;11.50;99.90;;;;;;5052278;28;20472;-75
2024/01/24 07:49:29;;;;;;;56.30;9.10;;;11.40;99.90;;;;;;5052667;28;20120;-74
2024/01/24 07:51:54;;;;;;;53.65;8.18;;;11.50;99.90;;;;;;5052072;28;20100;-72
2024/01/24 07:54:20;;;;;;;57.65;7.93;;;11.50;99.40;;;;;;5052766;28;20056;-72
2024/01/24 07:56:46;;;;;;;67.35;9.15;;;11.50;98.10;;;;;;5052127;28;20032;-73
2024/01/24 07:59:15;;;;;;;65.32;8.70;;;11.50;97.60;;;;;;5052372;28;20499;-73
2024/01/24 08:01:45;;;;;;;63.53;9.70;;;11.60;96.80;;;;;;5052680;28;20036;-73
2024/01/24 08:04:10;;;;;;;69.82;10.32;;;11.60;93.20;;;;;;5051097;28;20074;-72
2024/01/24 08:06:36;;;;;;;74.53;11.20;;;11.60;93.90;;;;;;5051251;28;20175;-72
2024/01/24 08:09:02;;;;;;;67.47;9.60;;;11.60;93.10;;;;;;5052494;28;20115;-73
2024/01/24 08:11:27;;;;;;;71.03;10.10;;;11.40;90.90;;;;;;5052472;28;20025;-72
2024/01/24 08:13:53;;;;;;;72.22;9.85;;;11.60;90.50;;;;;;5052252;28;20036;-74
2024/01/24 08:16:18;;;;;;;75.55;9.50;;;11.60;87.60;;;;;;5051779;28;20029;-77
2024/01/24 08:18:45;;;;;;;64.53;9.40;;;11.60;87.70;;;;;;5052354;28;20499;-76
2024/01/24 08:21:10;;;;;;;69.53;10.40;;;11.60;88.00;;;;;;5052548;28;20021;-72
2024/01/24 08:23:36;;;;;;;69.47;10.23;;;;;;;;;;5052234;28;20383;-72
2024/01/24 08:26:02;;;;;;;65.72;9.18;;;;;;;;;;5051207;28;20024;-72
2024/01/24 08:28:28;;;;;;;62.13;10.57;;;;;;;;;;5052081;28;20395;-72
2024/01/24 08:30:54;;;;;;;68.95;9.88;;;11.50;74.00;;;;;;5052691;28;20545;-72
2024/01/24 08:33:19;;;;;;;75.40;10.68;;;11.70;71.40;;;;;;5052703;28;20029;-71
2024/01/24 08:35:45;;;;;;;68.05;9.65;;;11.60;75.40;;;;;;5052340;28;20029;-74
2024/01/24 08:38:10;;;;;;;74.03;11.13;;;11.60;68.60;;;;;;5051691;28;20033;-74
2024/01/24 08:40:38;;;;;;;85.93;12.00;;;11.70;67.80;;;;;;5052545;28;20440;-73
2024/01/24 08:43:04;;;;;;;74.63;11.13;;;;;;;;;;5052255;28;20017;-72
2024/01/24 08:45:31;;;;;;;65.72;9.98;;;;;;;;;;5052503;28;20025;-72
2024/01/24 08:47:57;;;;;;;64.47;9.40;;;;;;;;;;5053022;28;20021;-74
2024/01/24 08:50:24;;;;;;;72.80;11.85;;;;;;;;;;5052620;28;20107;-75
2024/01/24 08:52:51;;;;;;;74.63;10.63;;;;;;;;;;5054272;28;20387;-73
2024/01/24 08:55:17;;;;;;;68.82;9.23;;;11.60;58.70;;;;;;5052146;28;20025;-75
2024/01/24 08:57:43;;;;;;;75.88;9.07;;;11.60;59.70;;;;;;5052082;28;20025;-74
2024/01/24 09:00:11;;;;;;;66.88;9.10;;;11.60;53.90;;;;;;5051844;28;20180;-73
2024/01/24 09:02:37;;;;;;;73.57;10.32;;;;;;;;;;5051570;28;20037;-73
2024/01/24 09:05:03;;;;;;;76.18;10.32;;;;;;;;;;5051588;28;20064;-73
2024/01/24 09:07:29;;;;;;;77.30;11.07;;;;;;;;;;5051365;28;20025;-73
2024/01/24 09:09:55;;;;;;;78.35;9.50;;;;;;;;;;5051243;28;20051;-73
2024/01/24 09:12:21;;;;;;;66.30;10.80;;;;;;;;;;5051347;28;20488;-74
2024/01/24 09:14:47;;;;;;;67.85;10.82;;;;;;;;;;5051672;28;20103;-74
2024/01/24 09:17:14;;;;;;;68.47;10.23;;;;;;;;;;5051251;28;20096;-77
2024/01/24 09:19:40;;;;;;;71.07;9.88;;;;;;;;;;5052453;28;20028;-73
2024/01/24 09:22:07;;;;;;;72.05;9.25;;;;;;;;;;5053195;28;20028;-73
2024/01/24 09:24:33;;;;;;;72.20;10.00;;;;;;;;;;5051675;28;20028;-74
2024/01/24 09:26:59;;;;;;;75.82;10.05;;;;;;;;;;5050981;28;20170;-73
2024/01/24 09:29:25;;;;;;;68.18;10.85;;;;;;;;;;5051439;28;20025;-74
2024/01/24 09:31:52;;;;;;;66.28;10.15;;;;;;;;;;5051663;28;20090;-73
2024/01/24 09:34:18;;;;;;;61.25;9.95;;;;;;;;;;5051433;28;20033;-73
2024/01/24 09:36:44;;;;;;;72.53;11.48;;;;;;;;;;5050905;28;20072;-75
2024/01/24 09:39:10;;;;;;;77.82;9.98;;;;;;;;;;5054070;28;20053;-75
2024/01/24 09:41:40;;;;;;;57.03;9.50;;;;;;;;;;5055752;28;20521;-75
2024/01/24 09:44:08;;;;;;;72.43;10.85;;;;;;;;;;5055318;28;20484;-76
2024/01/24 09:46:36;;;;;;;71.40;10.85;;;;;;;;;;5055068;28;20053;-75
2024/01/24 09:49:02;;;;;;;75.47;9.93;;;;;;;;;;5056032;28;20488;-75
2024/01/24 09:51:30;;;;;;;71.47;9.80;;;;;;;;;;5055675;28;20025;-74
2024/01/24 09:53:57;;;;;;;70.22;10.70;;;;;;;;;;5056216;28;20036;-76
2024/01/24 09:56:25;;;;;;;72.72;10.00;;;;;;;;;;5055041;28;20029;-76
2024/01/24 09:58:51;;;;;;;74.68;10.38;;;;;;;;;;5055082;28;20029;-75
2024/01/24 10:01:19;;;;;;;84.88;10.55;;;;;;;;;;5055851;28;20445;-74
2024/01/24 10:03:45;;;;;;;69.97;10.60;;;;;;;;;;5055312;28;20021;-72
2024/01/24 10:06:13;;;;;;;66.10;10.00;;;;;;;;;;5055176;28;20025;-73
2024/01/24 10:08:39;;;;;;;71.28;10.18;;;;;;;;;;5055595;28;20017;-75
2024/01/24 10:11:07;;;;;;;73.68;9.95;;;;;;;;;;5056184;28;20021;-74
2024/01/24 10:13:33;;;;;;;67.47;9.98;;;;;;;;;;5054282;28;20495;-75
2024/01/24 10:15:59;;;;;;;72.88;9.85;;;;;;;;;;5054746;28;20025;-76
2024/01/24 10:18:25;;;;;;;75.28;10.50;;;;;;;;;;5056040;28;20360;-74
2024/01/24 10:20:51;;;;;;;74.40;9.57;;;;;;;;;;5055066;28;20403;-73
2024/01/24 10:23:17;;;;;;;77.00;10.13;;;;;;;;;;5054836;28;20027;-72
2024/01/24 10:25:43;;;;;;;75.63;10.25;;;;;;;;;;5054499;28;20021;-72
2024/01/24 10:28:13;;;;;;;74.75;9.18;;;;;;;;;;5054591;28;20017;-74
2024/01/24 10:30:42;;;;;;;72.68;10.70;;;;;;;;;;5052485;28;20027;-72
2024/01/24 10:33:12;;;;;;;65.50;9.95;;;;;;;;;;5055038;28;20035;-73
2024/01/24 10:35:38;;;;;;;71.13;9.05;;;;;;;;;;5054431;28;20028;-72
2024/01/24 10:38:05;;;;;;;65.75;10.48;;;;;;;;;;5055424;28;20400;-74
2024/01/24 10:40:31;;;;;;;65.45;9.65;;;;;;;;;;5054583;28;20080;-73
2024/01/24 10:43:03;;;;;;;63.83;10.55;;;;;;;;;;5058855;28;20031;-75
2024/01/24 10:45:31;;;;;;;87.20;11.63;;;;;;;;;;5072110;28;20036;-73
2024/01/24 10:47:58;;;;;;;68.63;10.05;;;;;;;;;;5075431;28;20086;-73
2024/01/24 10:50:25;;;;;;;76.85;10.75;;;;;;;;;;5073329;28;20441;-74
2024/01/24 10:52:51;;;;;;;65.93;10.48;;;;;;;;;;5076726;28;20024;-74
2024/01/24 10:55:17;;;;;;;79.70;10.57;;;;;;;;;;5082976;28;20035;-74
2024/01/24 10:57:45;;;;;;;59.05;9.07;;;;;;;;;;5074745;28;20027;-73
2024/01/24 11:00:11;;;;;;;59.97;8.73;;;;;;;;;;5074986;28;20032;-74
2024/01/24 11:02:38;;;;;;;66.55;9.98;;;;;;;;;;5074667;28;20040;-72
2024/01/24 11:05:06;;;;;;;71.47;10.27;;;;;;;;;;5074532;28;20028;-72
2024/01/24 11:07:42;;;;;;;68.03;9.63;;;;;;;;;;5073651;28;20024;-73
2024/01/24 11:10:08;;;;;;;65.60;9.50;;;;;;;;;;5074644;28;20107;-73
2024/01/24 11:12:34;;;;;;;80.10;10.77;;;;;;;;;;5074028;28;20231;-73
2024/01/24 11:15:05;;;;;;;75.75;10.35;;;;;;;;;;5071789;28;20017;-72
2024/01/24 11:17:32;;;;;;;66.18;9.98;;;;;;;;;;5071925;28;20072;-73
2024/01/24 11:19:58;;;;;;;82.70;11.45;;;;;;;;;;5072631;28;20056;-72
2024/01/24 11:22:25;;;;;;;74.88;10.35;;;;;;;;;;5065997;28;20403;-72
2024/01/24 11:24:54;;;;;;;67.20;10.00;;;10.80;95.60;;;;;;5050874;28;20063;-73
2024/01/24 11:27:34;;;;;;;61.00;8.30;;;10.90;94.50;;;;;;5050735;28;20013;-74
2024/01/24 11:30:06;;;;;;;66.25;10.48;;;10.80;94.70;;;;;;5051950;28;20105;-73
2024/01/24 11:32:44;;;;;;;63.38;8.50;;;10.80;93.60;;;;;;5051549;28;20082;-72
2024/01/24 11:35:28;;;;;;;65.45;9.73;;;10.80;96.00;;;;;;5051137;28;20021;-75
2024/01/24 11:38:08;;;;;;;81.60;10.50;;;10.80;97.60;;;;;;5049633;28;20052;-73
2024/01/24 11:40:37;;;;;;;73.53;10.98;;;10.70;99.90;;;;;;5050456;28;20519;-73
2024/01/24 11:43:03;;;;;;;82.43;12.13;;;10.60;99.90;;;;;;5050260;28;20082;-74
2024/01/24 11:45:30;;;;;;;62.35;9.57;;;10.50;99.90;;;;;;5053617;28;20544;-73
2024/01/24 11:47:57;;;;;;;79.53;10.75;;;10.40;99.90;;;;;;5066611;28;20028;-73
2024/01/24 11:50:23;;;;;;;73.72;9.05;;;10.50;99.90;;;;;;5063790;28;20044;-76
2024/01/24 11:52:49;;;;;;;78.85;10.57;;;10.40;99.90;;;;;;5059856;28;20040;-73
2024/01/24 11:55:15;;;;;;;75.38;9.88;;;10.40;99.90;;;;;;5057952;28;20144;-74
2024/01/24 11:57:40;;;;;;;79.35;9.88;;;10.20;99.90;;;;;;5055843;28;20424;-74
2024/01/24 12:00:09;;;;;;;62.63;9.77;;;10.20;99.90;;;;;;5051030;28;20052;-72
2024/01/24 12:02:35;;;;;;;79.90;10.35;;;10.10;99.90;;;;;;5049942;28;20029;-74
2024/01/24 12:05:01;;;;;;;87.40;11.65;;;10.10;99.90;;;;;;5050804;28;20051;-73
2024/01/24 12:07:27;;;;;;;77.15;9.75;;;10.10;99.90;;;;;;5049944;28;20021;-73
2024/01/24 12:09:53;;;;;;;80.35;9.57;;;10.20;99.90;;;;;;5057004;28;20032;-74
2024/01/24 12:12:19;;;;;;;75.60;10.23;;;10.30;99.90;;;;;;5057664;28;20025;-74
2024/01/24 12:14:45;;;;;;;66.00;10.68;;;10.40;99.90;;;;;;5065774;28;20032;-74
2024/01/24 12:17:11;;;;;;;73.57;9.45;;;10.50;99.90;;;;;;5067950;28;20040;-75
2024/01/24 12:19:36;;;;;;;75.07;10.20;;;10.60;99.40;;;;;;5058173;28;20047;-72
2024/01/24 12:22:08;;;;;;;64.30;10.68;;;10.60;98.30;;;;;;5054416;28;20048;-75
2024/01/24 12:24:38;;;;;;;78.72;11.52;;;10.60;96.00;;;;;;5054716;28;20104;-72
2024/01/24 12:27:05;;;;;;;77.80;10.70;;;10.60;93.00;;;;;;5053696;28;20025;-72
2024/01/24 12:29:32;;;;;;;88.43;11.27;;;10.70;94.70;;;;;;5053362;28;20024;-74
2024/01/24 12:32:03;;;;;;;84.97;11.32;;;10.60;93.90;;;;;;5053915;28;20423;-71
2024/01/24 12:34:30;;;;;;;81.75;10.65;;;10.70;91.50;;;;;;5053205;28;20024;-74
2024/01/24 12:37:00;;;;;;;96.25;12.48;;;10.70;92.10;;;;;;5049413;28;20023;-74
2024/01/24 12:39:31;;;;;;;89.97;11.20;;;10.70;91.70;;;;;;5049742;28;20111;-73
2024/01/24 12:41:57;;;;;;;94.03;12.88;;;10.80;87.20;;;;;;5048293;28;20017;-75
2024/01/24 12:44:23;;;;;;;81.25;11.45;;;10.90;85.70;;;;;;5048505;28;20047;-73
2024/01/24 12:46:56;;;;;;;81.22;11.77;;;10.90;86.40;;;;;;5049055;28;20017;-74
2024/01/24 12:49:23;;;;;;;98.85;12.43;;;10.90;84.30;;;;;;5049362;28;20087;-74
2024/01/24 12:51:48;;;;;;;75.20;11.18;;;10.90;84.10;;;;;;5051184;28;20024;-74
2024/01/24 12:54:14;;;;;;;86.05;12.07;;;11.00;79.60;;;;;;5052540;28;20031;-73
2024/01/24 12:56:39;;;;;;;97.35;11.88;;;10.90;84.20;;;;;;5047812;28;20031;-73
2024/01/24 12:59:06;;;;;;;85.30;12.13;;;10.90;82.90;;;;;;5048656;28;20114;-73
2024/01/24 13:01:31;;;;;;;95.60;12.93;;;10.90;84.10;;;;;;5049984;28;20372;-72
2024/01/24 13:03:57;;;;;;;90.78;11.98;;;10.90;81.40;;;;;;5049445;28;20027;-74
2024/01/24 13:06:22;;;;;;;98.25;13.35;;;10.90;81.90;;;;;;5048745;28;20409;-73
2024/01/24 13:08:48;;;;;;;85.53;12.63;;;10.90;81.90;;;;;;5047725;28;20017;-74
2024/01/24 13:11:14;;;;;;;93.88;12.95;;;10.90;83.00;;;;;;5047981;28;20089;-74
2024/01/24 13:13:39;;;;;;;78.28;12.77;;;10.90;82.90;;;;;;5050639;28;20554;-74
2024/01/24 13:16:05;;;;;;;82.43;11.93;;;10.90;85.20;;;;;;5049796;28;20063;-73
2024/01/24 13:18:30;;;;;;;100.85;13.27;;;10.90;85.30;;;;;;5050813;28;20025;-76
2024/01/24 13:20:56;;;;;;;87.40;12.55;;;10.90;82.50;;;;;;5051226;28;20041;-73
2024/01/24 13:23:22;;;;;;;92.75;13.63;;;10.90;85.70;;;;;;5052915;28;20180;-75
2024/01/24 13:25:47;;;;;;;90.38;13.50;;;10.90;83.60;;;;;;5051728;28;20045;-73
2024/01/24 13:28:13;;;;;;;92.72;13.40;;;10.90;86.10;;;;;;5052762;28;20036;-72
2024/01/24 13:30:39;;;;;;;81.53;12.05;;;10.80;87.60;;;;;;5051709;28;20054;-72
2024/01/24 13:33:06;;;;;;;92.65;14.05;;;10.90;88.10;;;;;;5050514;28;20435;-73
2024/01/24 13:35:31;;;;;;;110.40;13.20;;;10.90;88.60;;;;;;5050939;28;20029;-73
2024/01/24 13:37:58;;;;;;;102.05;13.90;;;10.90;88.20;;;;;;5052137;28;20032;-74
2024/01/24 13:40:23;;;;;;;92.60;13.85;;;10.90;89.80;;;;;;5054697;28;20078;-73
2024/01/24 13:42:50;;;;;;;106.15;14.18;;;10.90;91.50;;;;;;5054194;28;20025;-75
2024/01/24 13:45:15;;;;;;;100.80;13.90;;;10.90;91.50;;;;;;5051879;28;20488;-74